createdAt,value
2018-11-20T00:00:45.600Z,16.40
2018-11-20T00:01:45.609Z,17.90
2018-11-20T00:02:45.672Z,17.50
2018-11-20T00:03:45.705Z,20.70
2018-11-20T00:04:45.708Z,21.60
2018-11-20T00:05:45.833Z,20.90
2018-11-20T00:06:45.801Z,22.60
2018-11-20T00:07:45.852Z,21.10
2018-11-20T00:08:45.910Z,20.20
2018-11-20T00:09:45.917Z,22.20
2018-11-20T00:10:45.984Z,21.40
2018-11-20T00:11:45.994Z,19.20
2018-11-20T00:12:46.045Z,16.90
2018-11-20T00:13:46.147Z,21.40
2018-11-20T00:14:46.150Z,19.50
2018-11-20T00:15:46.168Z,36.10
2018-11-20T00:16:46.217Z,14.30
2018-11-20T00:17:46.280Z,15.00
2018-11-20T00:18:46.302Z,14.80
2018-11-20T00:19:46.365Z,14.50
2018-11-20T00:20:46.406Z,16.30
2018-11-20T00:21:46.414Z,16.70
2018-11-20T00:22:46.467Z,14.20
2018-11-20T00:23:46.497Z,13.50
2018-11-20T00:24:46.553Z,14.60
2018-11-20T00:25:46.584Z,13.00
2018-11-20T00:26:46.630Z,12.10
2018-11-20T00:27:46.677Z,13.20
2018-11-20T00:28:46.728Z,11.20
2018-11-20T00:29:46.797Z,10.40
2018-11-20T00:30:46.774Z,11.50
2018-11-20T00:31:46.848Z,10.40
2018-11-20T00:32:46.851Z,9.30
2018-11-20T00:33:46.917Z,11.40
2018-11-20T00:34:46.932Z,11.00
2018-11-20T00:35:47.009Z,9.30
2018-11-20T00:36:47.057Z,8.60
2018-11-20T00:37:47.072Z,8.30
2018-11-20T00:38:47.131Z,8.10
2018-11-20T00:39:47.168Z,8.10
2018-11-20T00:40:47.216Z,9.30
2018-11-20T00:41:47.244Z,7.90
2018-11-20T00:42:47.362Z,57.30
2018-11-20T00:43:47.328Z,23.60
2018-11-20T00:44:47.435Z,8.90
2018-11-20T00:45:47.429Z,9.00
2018-11-20T00:46:47.464Z,9.60
2018-11-20T00:47:47.515Z,8.70
2018-11-20T00:48:47.563Z,8.90
2018-11-20T00:49:47.574Z,8.40
2018-11-20T00:50:47.628Z,8.30
2018-11-20T00:51:47.689Z,8.80
2018-11-20T00:52:47.747Z,8.00
2018-11-20T00:53:47.744Z,16.60
2018-11-20T00:54:47.820Z,20.70
2018-11-20T00:55:47.844Z,29.70
2018-11-20T00:56:47.927Z,6.90
2018-11-20T00:57:47.925Z,7.10
2018-11-20T00:58:47.981Z,6.90
2018-11-20T00:59:48.032Z,7.20
2018-11-20T01:00:48.057Z,6.60
2018-11-20T01:01:48.093Z,6.90
2018-11-20T01:02:48.163Z,6.30
2018-11-20T01:03:48.186Z,5.90
2018-11-20T01:04:48.214Z,6.00
2018-11-20T01:05:48.270Z,6.00
2018-11-20T01:06:48.308Z,6.60
2018-11-20T01:07:48.363Z,5.90
2018-11-20T01:08:48.410Z,5.90
2018-11-20T01:09:48.445Z,6.30
2018-11-20T01:10:48.474Z,5.30
2018-11-20T01:11:48.513Z,5.50
2018-11-20T01:12:48.604Z,13.70
2018-11-20T01:13:48.609Z,40.10
2018-11-20T01:14:48.637Z,4.70
2018-11-20T01:15:48.696Z,5.00
2018-11-20T01:16:48.724Z,5.20
2018-11-20T01:17:48.780Z,5.60
2018-11-20T01:18:48.832Z,5.80
2018-11-20T01:19:48.852Z,5.20
2018-11-20T01:20:48.916Z,7.00
2018-11-20T01:21:48.975Z,4.60
2018-11-20T01:22:49.017Z,4.90
2018-11-20T01:23:49.015Z,4.60
2018-11-20T01:24:49.043Z,6.40
2018-11-20T01:25:49.109Z,4.80
2018-11-20T01:26:49.124Z,5.20
2018-11-20T01:27:49.185Z,5.00
2018-11-20T01:28:49.233Z,5.70
2018-11-20T01:29:49.266Z,4.90
2018-11-20T01:30:49.321Z,5.70
2018-11-20T01:31:49.349Z,5.20
2018-11-20T01:32:49.387Z,4.90
2018-11-20T01:33:49.438Z,4.90
2018-11-20T01:34:49.487Z,5.80
2018-11-20T01:35:49.528Z,4.10
2018-11-20T01:36:49.544Z,5.10
2018-11-20T01:37:49.604Z,5.70
2018-11-20T01:38:49.661Z,5.90
2018-11-20T01:39:49.680Z,6.20
2018-11-20T01:40:49.738Z,5.30
2018-11-20T01:41:49.755Z,5.30
2018-11-20T01:42:49.822Z,32.40
2018-11-20T01:43:49.844Z,6.70
2018-11-20T01:44:49.905Z,5.60
2018-11-20T01:45:49.964Z,6.50
2018-11-20T01:46:49.978Z,5.50
2018-11-20T01:47:50.019Z,6.30
2018-11-20T01:48:50.079Z,4.70
2018-11-20T01:49:50.107Z,8.30
2018-11-20T01:50:50.126Z,7.30
2018-11-20T01:51:50.201Z,6.00
2018-11-20T01:52:50.224Z,4.60
2018-11-20T01:53:50.284Z,5.00
2018-11-20T01:54:50.302Z,6.40
2018-11-20T01:55:50.361Z,5.90
2018-11-20T01:56:50.410Z,7.20
2018-11-20T01:57:50.433Z,7.30
2018-11-20T01:58:50.521Z,4.70
2018-11-20T01:59:50.545Z,5.80
2018-11-20T02:00:50.573Z,5.80
2018-11-20T02:01:50.646Z,6.30
2018-11-20T02:02:50.695Z,6.70
2018-11-20T02:03:50.802Z,5.60
2018-11-20T02:04:50.871Z,6.60
2018-11-20T02:05:50.824Z,6.00
2018-11-20T02:06:50.865Z,5.30
2018-11-20T02:07:50.911Z,5.20
2018-11-20T02:08:50.954Z,6.20
2018-11-20T02:09:51.081Z,6.90
2018-11-20T02:10:51.118Z,6.00
2018-11-20T02:11:51.074Z,6.40
2018-11-20T02:12:51.105Z,6.50
2018-11-20T02:13:51.143Z,5.40
2018-11-20T02:14:51.193Z,6.50
2018-11-20T02:15:51.285Z,9.20
2018-11-20T02:16:51.383Z,5.80
2018-11-20T02:17:51.317Z,6.30
2018-11-20T02:18:51.365Z,6.50
2018-11-20T02:19:51.372Z,6.10
2018-11-20T02:20:51.456Z,4.60
2018-11-20T02:21:51.613Z,6.60
2018-11-20T02:22:51.631Z,5.10
2018-11-20T02:23:51.596Z,5.60
2018-11-20T02:24:51.607Z,6.10
2018-11-20T02:25:51.706Z,10.20
2018-11-20T02:26:51.726Z,5.50
2018-11-20T02:27:51.830Z,5.00
2018-11-20T02:28:51.781Z,6.30
2018-11-20T02:29:51.767Z,5.20
2018-11-20T02:30:51.854Z,5.70
2018-11-20T02:31:51.895Z,6.50
2018-11-20T02:32:52.050Z,6.20
2018-11-20T02:33:51.942Z,6.10
2018-11-20T02:34:52.054Z,5.40
2018-11-20T02:35:52.033Z,7.00
2018-11-20T02:36:52.126Z,5.40
2018-11-20T02:37:52.258Z,4.80
2018-11-20T02:38:52.305Z,6.40
2018-11-20T02:39:52.228Z,5.60
2018-11-20T02:40:52.225Z,6.10
2018-11-20T02:41:52.261Z,8.50
2018-11-20T02:42:52.326Z,4.60
2018-11-20T02:43:52.355Z,6.70
2018-11-20T02:44:52.406Z,5.20
2018-11-20T02:45:52.446Z,6.20
2018-11-20T02:46:52.499Z,5.50
2018-11-20T02:47:52.555Z,5.40
2018-11-20T02:48:52.612Z,4.10
2018-11-20T02:49:52.617Z,5.10
2018-11-20T02:50:52.642Z,4.40
2018-11-20T02:51:52.697Z,5.80
2018-11-20T02:52:52.714Z,18.80
2018-11-20T02:53:52.781Z,4.80
2018-11-20T02:54:52.828Z,6.10
2018-11-20T02:55:52.857Z,6.40
2018-11-20T02:56:52.900Z,25.90
2018-11-20T02:57:52.956Z,5.40
2018-11-20T02:58:53.009Z,11.10
2018-11-20T02:59:53.003Z,6.50
2018-11-20T03:00:53.061Z,5.40
2018-11-20T03:01:53.103Z,5.40
2018-11-20T03:02:53.156Z,5.40
2018-11-20T03:03:53.307Z,5.10
2018-11-20T03:04:53.231Z,5.50
2018-11-20T03:05:53.277Z,5.20
2018-11-20T03:06:53.325Z,5.90
2018-11-20T03:07:53.368Z,6.00
2018-11-20T03:08:53.394Z,4.60
2018-11-20T03:09:53.488Z,4.90
2018-11-20T03:10:53.518Z,4.40
2018-11-20T03:11:53.521Z,7.00
2018-11-20T03:12:53.569Z,6.60
2018-11-20T03:13:53.607Z,6.50
2018-11-20T03:14:53.641Z,5.40
2018-11-20T03:15:53.698Z,5.40
2018-11-20T03:16:53.773Z,5.30
2018-11-20T03:17:53.776Z,4.90
2018-11-20T03:18:53.815Z,4.40
2018-11-20T03:19:53.870Z,34.20
2018-11-20T03:20:53.900Z,5.00
2018-11-20T03:21:53.936Z,5.30
2018-11-20T03:22:53.993Z,4.90
2018-11-20T03:23:54.026Z,5.60
2018-11-20T03:24:54.075Z,6.60
2018-11-20T03:25:54.102Z,6.00
2018-11-20T03:26:54.313Z,4.80
2018-11-20T03:27:54.192Z,5.80
2018-11-20T03:28:54.272Z,6.10
2018-11-20T03:29:54.270Z,5.00
2018-11-20T03:30:54.360Z,6.30
2018-11-20T03:31:54.350Z,6.80
2018-11-20T03:32:54.398Z,6.20
2018-11-20T03:33:54.449Z,6.60
2018-11-20T03:34:54.479Z,6.80
2018-11-20T03:35:54.543Z,5.90
2018-11-20T03:36:54.603Z,6.60
2018-11-20T03:37:54.593Z,6.80
2018-11-20T03:38:54.669Z,7.60
2018-11-20T03:39:54.691Z,6.80
2018-11-20T03:40:54.735Z,7.60
2018-11-20T03:41:54.783Z,6.10
2018-11-20T03:42:54.816Z,6.90
2018-11-20T03:43:54.858Z,7.90
2018-11-20T03:44:54.907Z,8.30
2018-11-20T03:45:54.956Z,7.30
2018-11-20T03:46:54.985Z,6.90
2018-11-20T03:47:55.052Z,7.50
2018-11-20T03:48:55.108Z,6.80
2018-11-20T03:49:55.099Z,6.60
2018-11-20T03:50:55.131Z,6.00
2018-11-20T03:51:55.185Z,7.80
2018-11-20T03:52:55.223Z,7.70
2018-11-20T03:53:55.283Z,7.70
2018-11-20T03:54:55.323Z,5.90
2018-11-20T03:55:55.349Z,6.90
2018-11-20T03:56:55.655Z,7.30
2018-11-20T03:57:55.437Z,8.40
2018-11-20T03:58:55.467Z,6.00
2018-11-20T03:59:55.533Z,7.40
2018-11-20T04:00:55.581Z,6.50
2018-11-20T04:01:55.597Z,7.60
2018-11-20T04:02:55.647Z,7.30
2018-11-20T04:03:55.689Z,8.20
2018-11-20T04:04:55.763Z,7.00
2018-11-20T04:05:55.766Z,8.30
2018-11-20T04:06:55.862Z,7.40
2018-11-20T04:07:56.101Z,7.30
2018-11-20T04:08:55.939Z,7.00
2018-11-20T04:09:55.967Z,7.80
2018-11-20T04:10:55.967Z,6.50
2018-11-20T04:11:56.003Z,8.10
2018-11-20T04:12:56.063Z,6.70
2018-11-20T04:13:56.099Z,8.40
2018-11-20T04:14:56.164Z,9.50
2018-11-20T04:15:56.174Z,9.70
2018-11-20T04:16:56.247Z,11.40
2018-11-20T04:17:56.354Z,13.00
2018-11-20T04:18:56.312Z,11.20
2018-11-20T04:19:56.366Z,9.10
2018-11-20T04:20:56.409Z,11.40
2018-11-20T04:21:56.507Z,10.70
2018-11-20T04:22:56.487Z,10.50
2018-11-20T04:23:56.518Z,10.30
2018-11-20T04:24:56.557Z,9.50
2018-11-20T04:25:56.854Z,11.50
2018-11-20T04:26:56.645Z,8.20
2018-11-20T04:27:56.703Z,9.90
2018-11-20T04:28:56.748Z,10.80
2018-11-20T04:29:56.790Z,9.90
2018-11-20T04:30:56.824Z,10.60
2018-11-20T04:31:56.891Z,9.90
2018-11-20T04:32:56.917Z,10.50
2018-11-20T04:33:56.949Z,9.00
2018-11-20T04:34:56.984Z,16.30
2018-11-20T04:35:57.029Z,8.80
2018-11-20T04:36:57.073Z,9.30
2018-11-20T04:37:57.114Z,16.10
2018-11-20T04:38:57.156Z,19.90
2018-11-20T04:39:57.202Z,18.70
2018-11-20T04:40:57.264Z,15.00
2018-11-20T04:41:57.306Z,13.40
2018-11-20T04:42:57.324Z,12.30
2018-11-20T04:43:57.379Z,10.50
2018-11-20T04:44:57.456Z,10.60
2018-11-20T04:45:57.454Z,10.60
2018-11-20T04:46:57.488Z,10.20
2018-11-20T04:47:57.551Z,8.60
2018-11-20T04:48:57.598Z,9.00
2018-11-20T04:49:57.704Z,8.40
2018-11-20T04:50:57.670Z,10.70
2018-11-20T04:51:57.726Z,12.00
2018-11-20T04:52:58.018Z,11.40
2018-11-20T04:53:57.790Z,10.40
2018-11-20T04:54:57.835Z,11.00
2018-11-20T04:55:57.873Z,10.20
2018-11-20T04:56:57.930Z,10.40
2018-11-20T04:57:57.979Z,13.00
2018-11-20T04:58:58.002Z,11.90
2018-11-20T04:59:58.048Z,13.50
2018-11-20T05:00:58.082Z,12.10
2018-11-20T05:01:58.148Z,12.50
2018-11-20T05:02:58.233Z,12.20
2018-11-20T05:03:58.476Z,12.80
2018-11-20T05:04:58.249Z,13.50
2018-11-20T05:05:58.297Z,12.80
2018-11-20T05:06:58.337Z,13.10
2018-11-20T05:07:58.428Z,13.90
2018-11-20T05:08:58.432Z,14.10
2018-11-20T05:09:58.472Z,14.30
2018-11-20T05:10:58.516Z,15.50
2018-11-20T05:11:58.576Z,11.90
2018-11-20T05:12:58.602Z,13.60
2018-11-20T05:13:58.643Z,12.90
2018-11-20T05:14:58.690Z,12.60
2018-11-20T05:15:58.727Z,12.70
2018-11-20T05:16:58.756Z,12.80
2018-11-20T05:17:58.800Z,13.80
2018-11-20T05:18:58.896Z,12.90
2018-11-20T05:19:58.885Z,13.10
2018-11-20T05:20:58.962Z,13.90
2018-11-20T05:21:59.008Z,13.20
2018-11-20T05:22:59.009Z,12.50
2018-11-20T05:23:59.060Z,11.60
2018-11-20T05:24:59.126Z,12.80
2018-11-20T05:25:59.430Z,14.30
2018-11-20T05:26:59.239Z,12.30
2018-11-20T05:27:59.275Z,12.80
2018-11-20T05:28:59.319Z,14.30
2018-11-20T05:29:59.313Z,12.40
2018-11-20T05:30:59.412Z,13.00
2018-11-20T05:31:59.406Z,14.30
2018-11-20T05:32:59.486Z,13.30
2018-11-20T05:33:59.488Z,13.10
2018-11-20T05:34:59.528Z,13.30
2018-11-20T05:35:59.557Z,14.80
2018-11-20T05:36:59.599Z,15.80
2018-11-20T05:37:59.913Z,17.00
2018-11-20T05:38:59.733Z,15.00
2018-11-20T05:39:59.740Z,18.00
2018-11-20T05:40:59.795Z,14.70
2018-11-20T05:41:59.841Z,14.50
2018-11-20T05:42:59.878Z,14.20
2018-11-20T05:43:59.908Z,14.00
2018-11-20T05:44:59.958Z,16.20
2018-11-20T05:45:59.999Z,12.20
2018-11-20T05:47:00.130Z,14.70
2018-11-20T05:48:00.096Z,16.10
2018-11-20T05:49:00.126Z,16.00
2018-11-20T05:50:00.183Z,15.50
2018-11-20T05:51:00.260Z,14.50
2018-11-20T05:52:00.253Z,15.10
2018-11-20T05:53:00.547Z,14.70
2018-11-20T05:54:00.335Z,18.00
2018-11-20T05:55:00.374Z,17.90
2018-11-20T05:56:00.400Z,18.10
2018-11-20T05:57:00.462Z,16.70
2018-11-20T05:58:00.651Z,17.70
2018-11-20T05:59:00.549Z,18.20
2018-11-20T06:00:00.607Z,18.20
2018-11-20T06:01:00.630Z,20.30
2018-11-20T06:02:00.661Z,16.70
2018-11-20T06:03:00.715Z,19.00
2018-11-20T06:04:01.008Z,21.60
2018-11-20T06:05:00.803Z,21.90
2018-11-20T06:06:00.880Z,19.30
2018-11-20T06:07:00.868Z,19.60
2018-11-20T06:08:00.939Z,20.80
2018-11-20T06:09:01.003Z,19.60
2018-11-20T06:10:01.020Z,21.80
2018-11-20T06:11:01.052Z,22.00
2018-11-20T06:12:01.116Z,20.30
2018-11-20T06:13:01.156Z,19.00
2018-11-20T06:14:01.175Z,17.20
2018-11-20T06:15:01.209Z,18.20
2018-11-20T06:16:01.278Z,17.50
2018-11-20T06:17:01.298Z,17.50
2018-11-20T06:18:01.347Z,18.90
2018-11-20T06:19:01.499Z,15.90
2018-11-20T06:20:01.447Z,18.30
2018-11-20T06:21:01.516Z,17.00
2018-11-20T06:22:01.828Z,17.30
2018-11-20T06:23:01.556Z,17.50
2018-11-20T06:24:01.585Z,18.70
2018-11-20T06:25:01.634Z,15.30
2018-11-20T06:26:01.679Z,17.80
2018-11-20T06:27:01.727Z,17.30
2018-11-20T06:28:01.780Z,17.90
2018-11-20T06:29:01.816Z,17.30
2018-11-20T06:30:01.839Z,16.70
2018-11-20T06:31:01.900Z,16.90
2018-11-20T06:32:01.947Z,18.40
2018-11-20T06:33:01.973Z,15.60
2018-11-20T06:34:02.017Z,15.50
2018-11-20T06:35:02.121Z,13.90
2018-11-20T06:36:02.102Z,16.10
2018-11-20T06:37:02.163Z,15.00
2018-11-20T06:38:02.172Z,15.50
2018-11-20T06:39:02.227Z,16.60
2018-11-20T06:40:02.284Z,17.40
2018-11-20T06:41:02.349Z,18.30
2018-11-20T06:42:02.368Z,14.00
2018-11-20T06:43:02.418Z,15.30
2018-11-20T06:44:02.458Z,17.00
2018-11-20T06:45:02.497Z,14.20
2018-11-20T06:46:02.511Z,16.40
2018-11-20T06:47:02.627Z,16.00
2018-11-20T06:48:02.590Z,13.30
2018-11-20T06:49:02.692Z,19.30
2018-11-20T06:50:02.972Z,15.10
2018-11-20T06:51:02.728Z,13.80
2018-11-20T06:52:02.821Z,17.20
2018-11-20T06:53:02.976Z,15.40
2018-11-20T06:54:02.861Z,19.70
2018-11-20T06:55:02.999Z,17.00
2018-11-20T06:56:02.980Z,16.30
2018-11-20T06:57:03.068Z,15.80
2018-11-20T06:58:03.040Z,17.20
2018-11-20T06:59:03.130Z,15.60
2018-11-20T07:00:03.164Z,16.00
2018-11-20T07:01:03.256Z,16.00
2018-11-20T07:02:03.212Z,15.50
2018-11-20T07:03:03.253Z,15.00
2018-11-20T07:04:03.291Z,14.80
2018-11-20T07:05:03.333Z,15.00
2018-11-20T07:06:03.414Z,15.00
2018-11-20T07:07:03.488Z,14.30
2018-11-20T07:08:03.759Z,15.10
2018-11-20T07:09:03.487Z,14.90
2018-11-20T07:10:03.531Z,16.10
2018-11-20T07:11:03.595Z,14.10
2018-11-20T07:12:03.646Z,12.10
2018-11-20T07:13:03.644Z,15.40
2018-11-20T07:14:03.708Z,13.60
2018-11-20T07:15:03.841Z,17.50
2018-11-20T07:16:03.968Z,14.70
2018-11-20T07:17:03.848Z,15.90
2018-11-20T07:18:03.927Z,13.70
2018-11-20T07:19:03.904Z,15.20
2018-11-20T07:20:03.948Z,17.10
2018-11-20T07:21:04.027Z,15.90
2018-11-20T07:22:04.065Z,16.00
2018-11-20T07:23:04.073Z,14.00
2018-11-20T07:24:04.145Z,14.50
2018-11-20T07:25:04.168Z,15.00
2018-11-20T07:26:04.209Z,15.20
2018-11-20T07:27:04.253Z,15.90
2018-11-20T07:28:04.300Z,13.30
2018-11-20T07:29:04.345Z,14.10
2018-11-20T07:30:04.628Z,15.60
2018-11-20T07:31:04.514Z,16.70
2018-11-20T07:32:04.554Z,17.00
2018-11-20T07:33:04.522Z,17.90
2018-11-20T07:34:04.547Z,14.90
2018-11-20T07:35:04.560Z,14.50
2018-11-20T07:36:04.745Z,17.30
2018-11-20T07:37:04.830Z,14.90
2018-11-20T07:38:04.695Z,14.20
2018-11-20T07:39:04.746Z,17.70
2018-11-20T07:40:04.803Z,16.30
2018-11-20T07:41:05.077Z,15.60
2018-11-20T07:42:04.859Z,16.40
2018-11-20T07:43:04.906Z,15.80
2018-11-20T07:44:04.964Z,14.90
2018-11-20T07:45:04.974Z,16.20
2018-11-20T07:46:05.028Z,16.70
2018-11-20T07:47:05.060Z,15.70
2018-11-20T07:48:05.140Z,18.10
2018-11-20T07:49:05.159Z,16.80
2018-11-20T07:50:05.231Z,15.80
2018-11-20T07:51:05.494Z,16.00
2018-11-20T07:52:05.284Z,17.20
2018-11-20T07:53:05.344Z,18.00
2018-11-20T07:54:05.404Z,16.90
2018-11-20T07:55:05.412Z,17.70
2018-11-20T07:56:05.538Z,17.60
2018-11-20T07:57:05.499Z,19.00
2018-11-20T07:58:05.550Z,16.90
2018-11-20T07:59:05.591Z,18.50
2018-11-20T08:00:05.644Z,17.50
2018-11-20T08:01:05.663Z,17.50
2018-11-20T08:02:05.754Z,20.40
2018-11-20T08:03:05.990Z,17.90
2018-11-20T08:04:05.813Z,18.60
2018-11-20T08:05:05.835Z,18.60
2018-11-20T08:06:05.854Z,21.30
2018-11-20T08:07:05.912Z,20.90
2018-11-20T08:08:05.961Z,17.10
2018-11-20T08:09:05.969Z,21.90
2018-11-20T08:10:06.076Z,18.50
2018-11-20T08:11:06.076Z,20.10
2018-11-20T08:12:06.122Z,21.10
2018-11-20T08:13:06.161Z,23.10
2018-11-20T08:14:06.484Z,22.00
2018-11-20T08:15:06.246Z,19.80
2018-11-20T08:16:06.430Z,20.90
2018-11-20T08:17:06.308Z,18.20
2018-11-20T08:18:06.377Z,22.70
2018-11-20T08:19:06.426Z,23.00
2018-11-20T08:20:06.444Z,24.70
2018-11-20T08:21:06.480Z,21.30
2018-11-20T08:22:06.527Z,23.50
2018-11-20T08:23:06.576Z,23.60
2018-11-20T08:24:06.627Z,23.50
2018-11-20T08:25:06.692Z,22.10
2018-11-20T08:26:06.866Z,22.60
2018-11-20T08:27:06.738Z,23.70
2018-11-20T08:28:06.824Z,26.80
2018-11-20T08:29:06.813Z,26.10
2018-11-20T08:30:06.881Z,23.30
2018-11-20T08:31:06.984Z,24.90
2018-11-20T08:32:06.937Z,25.10
2018-11-20T08:33:06.978Z,27.20
2018-11-20T08:34:07.042Z,24.90
2018-11-20T08:35:07.114Z,26.90
2018-11-20T08:36:07.121Z,25.60
2018-11-20T08:37:07.183Z,26.50
2018-11-20T08:38:07.211Z,25.20
2018-11-20T08:39:07.252Z,26.80
2018-11-20T08:40:07.263Z,24.80
2018-11-20T08:41:07.320Z,26.70
2018-11-20T08:42:07.452Z,25.80
2018-11-20T08:43:07.446Z,26.40
2018-11-20T08:44:07.488Z,26.30
2018-11-20T08:45:07.487Z,27.20
2018-11-20T08:46:07.516Z,26.00
2018-11-20T08:47:07.610Z,25.10
2018-11-20T08:48:07.675Z,25.60
2018-11-20T08:49:07.665Z,26.10
2018-11-20T08:50:07.709Z,25.20
2018-11-20T08:51:07.737Z,27.90
2018-11-20T08:52:07.773Z,28.50
2018-11-20T08:53:07.847Z,32.10
2018-11-20T08:54:07.868Z,28.60
2018-11-20T08:55:07.895Z,26.10
2018-11-20T08:56:07.936Z,28.50
2018-11-20T08:57:07.986Z,25.40
2018-11-20T08:58:08.042Z,26.00
2018-11-20T08:59:08.061Z,25.90
2018-11-20T09:00:08.114Z,25.80
2018-11-20T09:01:08.422Z,25.90
2018-11-20T09:02:08.264Z,28.00
2018-11-20T09:03:08.319Z,25.10
2018-11-20T09:04:08.282Z,26.60
2018-11-20T09:05:08.310Z,27.80
2018-11-20T09:06:08.381Z,25.80
2018-11-20T09:07:08.447Z,27.70
2018-11-20T09:08:08.470Z,24.60
2018-11-20T09:09:08.485Z,26.80
2018-11-20T09:10:08.705Z,27.00
2018-11-20T09:11:08.576Z,25.20
2018-11-20T09:12:08.621Z,26.20
2018-11-20T09:13:08.666Z,19.70
2018-11-20T09:14:08.732Z,24.10
2018-11-20T09:15:08.773Z,20.70
2018-11-20T09:16:08.789Z,21.10
2018-11-20T09:17:08.843Z,20.20
2018-11-20T09:18:08.886Z,24.10
2018-11-20T09:19:08.909Z,21.60
2018-11-20T09:20:08.980Z,20.30
2018-11-20T09:21:09.023Z,20.60
2018-11-20T09:22:09.042Z,22.10
2018-11-20T09:23:09.081Z,19.00
2018-11-20T09:24:09.142Z,17.20
2018-11-20T09:25:09.170Z,19.30
2018-11-20T09:26:09.231Z,20.40
2018-11-20T09:27:09.268Z,18.50
2018-11-20T09:28:09.447Z,19.90
2018-11-20T09:29:09.618Z,18.60
2018-11-20T09:30:09.405Z,19.70
2018-11-20T09:31:09.444Z,20.60
2018-11-20T09:32:09.498Z,20.20
2018-11-20T09:33:09.534Z,20.90
2018-11-20T09:34:09.607Z,17.80
2018-11-20T09:35:09.807Z,20.50
2018-11-20T09:36:09.674Z,19.50
2018-11-20T09:37:09.747Z,21.00
2018-11-20T09:38:09.743Z,23.00
2018-11-20T09:39:09.793Z,21.10
2018-11-20T09:40:09.843Z,25.10
2018-11-20T09:41:09.857Z,21.30
2018-11-20T09:42:09.925Z,22.80
2018-11-20T09:43:09.945Z,22.00
2018-11-20T09:44:10.015Z,22.20
2018-11-20T09:45:10.035Z,21.20
2018-11-20T09:46:10.071Z,24.70
2018-11-20T09:47:10.210Z,22.70
2018-11-20T09:48:10.181Z,23.60
2018-11-20T09:49:10.256Z,23.70
2018-11-20T09:50:10.282Z,25.00
2018-11-20T09:51:10.306Z,24.80
2018-11-20T09:52:10.403Z,24.40
2018-11-20T09:53:10.411Z,23.80
2018-11-20T09:54:10.454Z,26.40
2018-11-20T09:55:10.515Z,25.70
2018-11-20T09:56:10.529Z,26.00
2018-11-20T09:57:10.571Z,25.30
2018-11-20T09:58:10.589Z,24.50
2018-11-20T09:59:10.667Z,26.90
2018-11-20T10:00:10.701Z,26.30
2018-11-20T10:01:10.754Z,25.80
2018-11-20T10:02:10.796Z,26.50
2018-11-20T10:03:10.820Z,27.20
2018-11-20T10:04:10.867Z,26.10
2018-11-20T10:05:10.954Z,26.60
2018-11-20T10:06:10.996Z,25.80
2018-11-20T10:07:11.115Z,23.90
2018-11-20T10:08:11.027Z,27.30
2018-11-20T10:09:11.093Z,27.80
2018-11-20T10:10:11.131Z,26.20
2018-11-20T10:11:11.166Z,27.40
2018-11-20T10:12:11.227Z,27.30
2018-11-20T10:13:11.306Z,24.80
2018-11-20T10:14:11.346Z,25.60
2018-11-20T10:15:11.391Z,24.50
2018-11-20T10:16:11.394Z,23.70
2018-11-20T10:17:11.454Z,24.80
2018-11-20T10:18:11.488Z,24.60
2018-11-20T10:19:11.529Z,24.90
2018-11-20T10:20:11.558Z,25.70
2018-11-20T10:21:11.631Z,26.40
2018-11-20T10:22:11.737Z,27.50
2018-11-20T10:23:11.754Z,24.40
2018-11-20T10:24:11.730Z,27.00
2018-11-20T10:25:11.818Z,26.10
2018-11-20T10:26:11.937Z,27.70
2018-11-20T10:27:11.862Z,27.20
2018-11-20T10:28:11.964Z,27.80
2018-11-20T10:29:11.954Z,28.70
2018-11-20T10:30:12.029Z,25.90
2018-11-20T10:31:12.066Z,26.20
2018-11-20T10:32:12.118Z,29.60
2018-11-20T10:33:12.123Z,27.70
2018-11-20T10:34:12.236Z,28.10
2018-11-20T10:35:12.250Z,30.70
2018-11-20T10:36:12.286Z,29.40
2018-11-20T10:37:12.307Z,29.30
2018-11-20T10:38:12.379Z,30.90
2018-11-20T10:39:12.411Z,31.00
2018-11-20T10:40:12.467Z,31.50
2018-11-20T10:41:12.503Z,31.10
2018-11-20T10:42:12.536Z,30.50
2018-11-20T10:43:12.584Z,30.30
2018-11-20T10:44:12.635Z,33.00
2018-11-20T10:45:12.735Z,34.60
2018-11-20T10:46:12.790Z,30.10
2018-11-20T10:47:12.787Z,31.80
2018-11-20T10:48:12.815Z,30.70
2018-11-20T10:49:12.843Z,30.00
2018-11-20T10:50:12.907Z,29.40
2018-11-20T10:51:12.974Z,29.90
2018-11-20T10:52:13.034Z,29.40
2018-11-20T10:53:13.025Z,30.80
2018-11-20T10:54:13.098Z,28.50
2018-11-20T10:55:13.124Z,27.60
2018-11-20T10:56:13.183Z,29.60
2018-11-20T10:57:13.203Z,28.90
2018-11-20T10:58:13.264Z,27.30
2018-11-20T10:59:13.323Z,28.30
2018-11-20T11:00:13.391Z,28.10
2018-11-20T11:01:13.406Z,27.10
2018-11-20T11:02:13.414Z,24.80
2018-11-20T11:03:13.480Z,25.80
2018-11-20T11:04:13.525Z,25.20
2018-11-20T11:05:13.620Z,26.70
2018-11-20T11:06:13.677Z,24.40
2018-11-20T11:07:14.162Z,25.60
2018-11-20T11:08:13.775Z,22.20
2018-11-20T11:09:13.759Z,24.90
2018-11-20T11:10:13.817Z,23.70
2018-11-20T11:11:13.824Z,21.00
2018-11-20T11:12:13.982Z,21.80
2018-11-20T11:13:13.928Z,23.20
2018-11-20T11:14:14.005Z,23.30
2018-11-20T11:15:14.040Z,20.60
2018-11-20T11:16:14.090Z,20.60
2018-11-20T11:17:14.130Z,17.90
2018-11-20T11:18:14.192Z,17.00
2018-11-20T11:19:14.228Z,18.90
2018-11-20T11:20:14.326Z,16.80
2018-11-20T11:21:14.301Z,17.30
2018-11-20T11:22:14.346Z,17.90
2018-11-20T11:23:14.409Z,18.20
2018-11-20T11:24:14.442Z,17.90
2018-11-20T11:25:14.493Z,17.40
2018-11-20T11:26:14.556Z,16.60
2018-11-20T11:27:14.568Z,16.80
2018-11-20T11:28:14.636Z,15.30
2018-11-20T11:29:14.708Z,16.20
2018-11-20T11:30:14.726Z,15.30
2018-11-20T11:31:14.772Z,16.60
2018-11-20T11:32:14.807Z,16.10
2018-11-20T11:33:14.858Z,18.20
2018-11-20T11:34:14.945Z,18.80
2018-11-20T11:35:14.956Z,17.80
2018-11-20T11:36:14.978Z,19.10
2018-11-20T11:37:15.052Z,18.00
2018-11-20T11:38:15.085Z,17.60
2018-11-20T11:39:15.147Z,18.70
2018-11-20T11:40:15.186Z,19.40
2018-11-20T11:41:15.236Z,21.70
2018-11-20T11:42:15.319Z,18.80
2018-11-20T11:43:15.312Z,17.30
2018-11-20T11:44:15.357Z,17.50
2018-11-20T11:45:15.497Z,18.90
2018-11-20T11:46:15.451Z,18.60
2018-11-20T11:47:15.499Z,18.70
2018-11-20T11:48:15.561Z,19.30
2018-11-20T11:49:15.590Z,17.30
2018-11-20T11:50:15.636Z,17.90
2018-11-20T11:51:15.692Z,18.20
2018-11-20T11:52:15.737Z,17.40
2018-11-20T11:53:15.785Z,17.30
2018-11-20T11:54:15.811Z,17.50
2018-11-20T11:55:15.873Z,16.90
2018-11-20T11:56:15.923Z,16.30
2018-11-20T11:57:15.965Z,15.70
2018-11-20T11:58:18.710Z,15.50
2018-11-20T11:59:16.048Z,18.90
2018-11-20T12:00:16.121Z,14.80
2018-11-20T12:01:16.139Z,14.30
2018-11-20T12:03:16.227Z,16.10
2018-11-20T12:04:16.283Z,16.60
2018-11-20T12:05:16.323Z,16.90
2018-11-20T12:06:16.381Z,18.40
2018-11-20T12:07:16.488Z,18.50
2018-11-20T12:08:16.467Z,17.60
2018-11-20T12:09:16.524Z,17.70
2018-11-20T12:10:16.557Z,17.90
2018-11-20T12:11:16.614Z,18.10
2018-11-20T12:12:16.658Z,17.90
2018-11-20T12:13:58.655Z,18.90
2018-11-20T12:14:58.677Z,20.20
2018-11-20T12:15:58.721Z,19.30
2018-11-20T12:16:58.767Z,17.70
2018-11-20T12:17:58.815Z,17.90
2018-11-20T12:18:58.860Z,17.90
2018-11-20T12:19:58.902Z,17.40
2018-11-20T12:20:58.949Z,18.10
2018-11-20T12:21:58.995Z,23.20
2018-11-20T12:22:59.097Z,16.90
2018-11-20T12:23:59.090Z,16.60
2018-11-20T12:24:59.156Z,16.40
2018-11-20T12:25:59.176Z,16.60
2018-11-20T12:26:59.220Z,15.70
2018-11-20T12:27:59.256Z,15.80
2018-11-20T12:28:59.333Z,16.70
2018-11-20T12:29:59.384Z,15.60
2018-11-20T12:30:59.418Z,15.70
2018-11-20T12:31:59.492Z,16.00
2018-11-20T12:32:59.500Z,16.20
2018-11-20T12:34:00.153Z,15.90
2018-11-20T12:34:59.591Z,15.90
2018-11-20T12:35:59.634Z,16.90
2018-11-20T12:36:59.668Z,15.20
2018-11-20T12:38:01.109Z,15.70
2018-11-20T12:39:00.357Z,15.80
2018-11-20T12:39:59.832Z,15.30
2018-11-20T12:40:59.866Z,15.10
2018-11-20T12:41:59.911Z,14.50
2018-11-20T12:42:59.946Z,14.20
2018-11-20T12:43:59.992Z,14.20
2018-11-20T12:45:00.051Z,13.70
2018-11-20T12:46:00.136Z,14.30
2018-11-20T12:47:00.141Z,12.90
2018-11-20T12:48:01.771Z,12.60
2018-11-20T12:49:00.249Z,12.30
2018-11-20T12:50:00.281Z,12.10
2018-11-20T12:51:00.301Z,12.10
2018-11-20T12:52:00.368Z,12.80
2018-11-20T12:53:02.436Z,12.00
2018-11-20T12:54:00.438Z,13.40
2018-11-20T12:55:00.520Z,12.40
2018-11-20T12:56:00.553Z,12.50
2018-11-20T12:57:00.659Z,14.10
2018-11-20T12:58:00.647Z,12.50
2018-11-20T12:59:00.690Z,12.70
2018-11-20T13:00:00.726Z,13.10
2018-11-20T13:01:00.788Z,13.20
2018-11-20T13:02:00.825Z,13.00